sensor_id;sensor_type;location;lat;lon;timestamp;temperature;humidity
67186;HTU21D;54116;53.518;49.398;2023-12-28T00:01:46;-15.99;118.99
67186;HTU21D;54116;53.518;49.398;2023-12-28T00:04:12;-16.02;118.99
67186;HTU21D;54116;53.518;49.398;2023-12-28T00:06:39;-15.95;118.99
67186;HTU21D;54116;53.518;49.398;2023-12-28T00:09:07;-15.95;118.99
67186;HTU21D;54116;53.518;49.398;2023-12-28T00:11:33;-15.95;118.99
67186;HTU21D;54116;53.518;49.398;2023-12-28T00:13:59;-15.89;118.99
67186;HTU21D;54116;53.518;49.398;2023-12-28T00:16:25;-16.08;118.99
67186;HTU21D;54116;53.518;49.398;2023-12-28T00:18:52;-16.12;118.99
67186;HTU21D;54116;53.518;49.398;2023-12-28T00:21:18;-16.12;118.99
67186;HTU21D;54116;53.518;49.398;2023-12-28T00:23:44;-16.20;118.99
67186;HTU21D;54116;53.518;49.398;2023-12-28T00:26:11;-16.21;118.99
67186;HTU21D;54116;53.518;49.398;2023-12-28T00:28:37;-16.17;118.99
67186;HTU21D;54116;53.518;49.398;2023-12-28T00:31:03;-16.21;118.99
67186;HTU21D;54116;53.518;49.398;2023-12-28T00:33:30;-16.06;118.99
67186;HTU21D;54116;53.518;49.398;2023-12-28T00:35:56;-16.18;118.99
67186;HTU21D;54116;53.518;49.398;2023-12-28T00:38:22;-16.09;118.99
67186;HTU21D;54116;53.518;49.398;2023-12-28T00:40:48;-16.10;118.99
67186;HTU21D;54116;53.518;49.398;2023-12-28T00:43:15;-16.06;118.99
67186;HTU21D;54116;53.518;49.398;2023-12-28T00:45:41;-15.95;118.99
67186;HTU21D;54116;53.518;49.398;2023-12-28T00:48:09;-16.10;118.99
67186;HTU21D;54116;53.518;49.398;2023-12-28T00:50:35;-16.14;118.99
67186;HTU21D;54116;53.518;49.398;2023-12-28T00:53:02;-16.22;118.99
67186;HTU21D;54116;53.518;49.398;2023-12-28T00:55:28;-16.27;118.99
67186;HTU21D;54116;53.518;49.398;2023-12-28T00:57:54;-16.29;118.99
67186;HTU21D;54116;53.518;49.398;2023-12-28T01:00:21;-16.18;118.99
67186;HTU21D;54116;53.518;49.398;2023-12-28T01:02:47;-16.26;118.99
67186;HTU21D;54116;53.518;49.398;2023-12-28T01:05:14;-16.28;118.99
67186;HTU21D;54116;53.518;49.398;2023-12-28T01:07:41;-15.89;118.99
67186;HTU21D;54116;53.518;49.398;2023-12-28T01:10:08;-15.78;118.99
67186;HTU21D;54116;53.518;49.398;2023-12-28T01:12:34;-15.80;118.99
67186;HTU21D;54116;53.518;49.398;2023-12-28T01:15:00;-15.96;118.99
67186;HTU21D;54116;53.518;49.398;2023-12-28T01:17:26;-15.91;118.99
67186;HTU21D;54116;53.518;49.398;2023-12-28T01:19:53;-16.00;118.99
67186;HTU21D;54116;53.518;49.398;2023-12-28T01:22:19;-16.09;118.99
67186;HTU21D;54116;53.518;49.398;2023-12-28T01:24:46;-16.17;118.99
67186;HTU21D;54116;53.518;49.398;2023-12-28T01:27:12;-16.06;118.99
67186;HTU21D;54116;53.518;49.398;2023-12-28T01:29:39;-16.17;118.99
67186;HTU21D;54116;53.518;49.398;2023-12-28T01:32:05;-16.19;118.99
67186;HTU21D;54116;53.518;49.398;2023-12-28T01:34:31;-16.13;118.99
67186;HTU21D;54116;53.518;49.398;2023-12-28T01:36:58;-16.27;118.99
67186;HTU21D;54116;53.518;49.398;2023-12-28T01:39:24;-16.10;118.99
67186;HTU21D;54116;53.518;49.398;2023-12-28T01:41:50;-16.12;118.99
67186;HTU21D;54116;53.518;49.398;2023-12-28T01:44:16;-16.21;118.99
67186;HTU21D;54116;53.518;49.398;2023-12-28T01:46:43;-16.30;118.99
67186;HTU21D;54116;53.518;49.398;2023-12-28T01:49:09;-16.35;118.99
67186;HTU21D;54116;53.518;49.398;2023-12-28T01:51:36;-16.35;118.99
67186;HTU21D;54116;53.518;49.398;2023-12-28T01:54:03;-16.38;118.99
67186;HTU21D;54116;53.518;49.398;2023-12-28T01:56:30;-16.41;118.99
67186;HTU21D;54116;53.518;49.398;2023-12-28T01:58:56;-16.46;118.99
67186;HTU21D;54116;53.518;49.398;2023-12-28T02:01:22;-16.42;118.99
67186;HTU21D;54116;53.518;49.398;2023-12-28T02:03:51;-16.44;118.99
67186;HTU21D;54116;53.518;49.398;2023-12-28T02:06:19;-16.43;118.99
67186;HTU21D;54116;53.518;49.398;2023-12-28T02:08:49;-16.43;118.99
67186;HTU21D;54116;53.518;49.398;2023-12-28T02:11:15;-16.41;118.99
67186;HTU21D;54116;53.518;49.398;2023-12-28T02:13:43;-16.48;118.99
67186;HTU21D;54116;53.518;49.398;2023-12-28T02:18:46;-16.41;118.99
67186;HTU21D;54116;53.518;49.398;2023-12-28T02:21:13;-16.44;118.99
67186;HTU21D;54116;53.518;49.398;2023-12-28T02:23:46;-16.39;118.99
67186;HTU21D;54116;53.518;49.398;2023-12-28T02:26:13;-16.43;118.99
67186;HTU21D;54116;53.518;49.398;2023-12-28T02:28:39;-16.40;118.99
67186;HTU21D;54116;53.518;49.398;2023-12-28T02:31:07;-16.40;118.99
67186;HTU21D;54116;53.518;49.398;2023-12-28T02:33:46;-16.43;118.99
67186;HTU21D;54116;53.518;49.398;2023-12-28T02:36:18;-16.48;118.99
67186;HTU21D;54116;53.518;49.398;2023-12-28T02:38:46;-16.49;118.99
67186;HTU21D;54116;53.518;49.398;2023-12-28T02:41:15;-16.42;118.99
67186;HTU21D;54116;53.518;49.398;2023-12-28T02:43:42;-16.46;118.99
67186;HTU21D;54116;53.518;49.398;2023-12-28T02:46:08;-16.49;118.99
67186;HTU21D;54116;53.518;49.398;2023-12-28T02:48:34;-16.51;118.99
67186;HTU21D;54116;53.518;49.398;2023-12-28T02:51:00;-16.61;118.99
67186;HTU21D;54116;53.518;49.398;2023-12-28T02:53:26;-16.61;118.99
67186;HTU21D;54116;53.518;49.398;2023-12-28T02:55:53;-16.59;118.99
67186;HTU21D;54116;53.518;49.398;2023-12-28T02:58:19;-16.66;118.99
67186;HTU21D;54116;53.518;49.398;2023-12-28T03:00:45;-16.67;118.99
67186;HTU21D;54116;53.518;49.398;2023-12-28T03:03:11;-16.67;118.99
67186;HTU21D;54116;53.518;49.398;2023-12-28T03:05:37;-16.71;118.99
67186;HTU21D;54116;53.518;49.398;2023-12-28T03:08:04;-16.71;118.99
67186;HTU21D;54116;53.518;49.398;2023-12-28T03:10:31;-16.74;118.99
67186;HTU21D;54116;53.518;49.398;2023-12-28T03:12:57;-16.73;118.99
67186;HTU21D;54116;53.518;49.398;2023-12-28T03:15:23;-16.77;118.99
67186;HTU21D;54116;53.518;49.398;2023-12-28T03:17:49;-16.70;118.99
67186;HTU21D;54116;53.518;49.398;2023-12-28T03:20:15;-16.71;118.99
67186;HTU21D;54116;53.518;49.398;2023-12-28T03:22:42;-16.76;118.99
67186;HTU21D;54116;53.518;49.398;2023-12-28T03:25:08;-16.73;118.99
67186;HTU21D;54116;53.518;49.398;2023-12-28T03:27:34;-16.80;118.99
67186;HTU21D;54116;53.518;49.398;2023-12-28T03:30:00;-16.79;118.99
67186;HTU21D;54116;53.518;49.398;2023-12-28T03:32:26;-16.83;118.99
67186;HTU21D;54116;53.518;49.398;2023-12-28T03:34:52;-16.81;118.99
67186;HTU21D;54116;53.518;49.398;2023-12-28T03:37:18;-16.83;118.99
67186;HTU21D;54116;53.518;49.398;2023-12-28T03:39:44;-16.92;118.99
67186;HTU21D;54116;53.518;49.398;2023-12-28T03:42:12;-16.91;118.99
67186;HTU21D;54116;53.518;49.398;2023-12-28T03:44:38;-17.04;118.99
67186;HTU21D;54116;53.518;49.398;2023-12-28T03:47:04;-17.01;118.99
67186;HTU21D;54116;53.518;49.398;2023-12-28T03:49:30;-17.11;118.99
67186;HTU21D;54116;53.518;49.398;2023-12-28T03:51:56;-17.15;118.99
67186;HTU21D;54116;53.518;49.398;2023-12-28T03:54:23;-17.14;118.99
67186;HTU21D;54116;53.518;49.398;2023-12-28T03:56:49;-17.18;118.99
67186;HTU21D;54116;53.518;49.398;2023-12-28T03:59:15;-17.21;118.99
67186;HTU21D;54116;53.518;49.398;2023-12-28T04:01:41;-17.17;118.99
67186;HTU21D;54116;53.518;49.398;2023-12-28T04:04:07;-17.17;118.99
67186;HTU21D;54116;53.518;49.398;2023-12-28T04:06:34;-17.24;118.99
67186;HTU21D;54116;53.518;49.398;2023-12-28T04:09:00;-17.09;118.99
67186;HTU21D;54116;53.518;49.398;2023-12-28T04:11:26;-17.10;118.99
67186;HTU21D;54116;53.518;49.398;2023-12-28T04:13:52;-17.11;118.99
67186;HTU21D;54116;53.518;49.398;2023-12-28T04:16:18;-17.14;118.99
67186;HTU21D;54116;53.518;49.398;2023-12-28T04:18:44;-17.17;118.99
67186;HTU21D;54116;53.518;49.398;2023-12-28T04:21:11;-17.25;118.99
67186;HTU21D;54116;53.518;49.398;2023-12-28T04:23:39;-17.32;118.99
67186;HTU21D;54116;53.518;49.398;2023-12-28T04:26:06;-17.37;118.99
67186;HTU21D;54116;53.518;49.398;2023-12-28T04:28:33;-17.45;118.99
67186;HTU21D;54116;53.518;49.398;2023-12-28T04:31:05;-17.46;118.99
67186;HTU21D;54116;53.518;49.398;2023-12-28T04:33:32;-17.45;118.99
67186;HTU21D;54116;53.518;49.398;2023-12-28T04:36:02;-17.41;118.99
67186;HTU21D;54116;53.518;49.398;2023-12-28T04:38:32;-17.50;118.99
67186;HTU21D;54116;53.518;49.398;2023-12-28T04:40:59;-17.50;118.99
67186;HTU21D;54116;53.518;49.398;2023-12-28T04:43:26;-17.47;118.99
67186;HTU21D;54116;53.518;49.398;2023-12-28T04:45:52;-17.48;118.99
67186;HTU21D;54116;53.518;49.398;2023-12-28T04:48:19;-17.45;118.99
67186;HTU21D;54116;53.518;49.398;2023-12-28T04:50:49;-17.51;118.99
67186;HTU21D;54116;53.518;49.398;2023-12-28T04:53:16;-17.45;118.99
67186;HTU21D;54116;53.518;49.398;2023-12-28T04:55:42;-17.47;118.99
67186;HTU21D;54116;53.518;49.398;2023-12-28T04:58:10;-17.54;118.99
67186;HTU21D;54116;53.518;49.398;2023-12-28T05:00:37;-17.55;118.99
67186;HTU21D;54116;53.518;49.398;2023-12-28T05:03:03;-17.63;118.99
67186;HTU21D;54116;53.518;49.398;2023-12-28T05:05:29;-17.59;118.99
67186;HTU21D;54116;53.518;49.398;2023-12-28T05:07:56;-17.54;118.99
67186;HTU21D;54116;53.518;49.398;2023-12-28T05:10:22;-17.59;118.99
67186;HTU21D;54116;53.518;49.398;2023-12-28T05:12:48;-17.66;118.99
67186;HTU21D;54116;53.518;49.398;2023-12-28T05:15:15;-17.52;118.99
67186;HTU21D;54116;53.518;49.398;2023-12-28T05:17:41;-17.65;118.99
67186;HTU21D;54116;53.518;49.398;2023-12-28T05:20:08;-17.66;118.99
67186;HTU21D;54116;53.518;49.398;2023-12-28T05:22:34;-17.70;118.99
67186;HTU21D;54116;53.518;49.398;2023-12-28T05:25:00;-17.70;118.99
67186;HTU21D;54116;53.518;49.398;2023-12-28T05:27:26;-17.73;118.99
67186;HTU21D;54116;53.518;49.398;2023-12-28T05:29:52;-17.70;118.99
67186;HTU21D;54116;53.518;49.398;2023-12-28T05:32:18;-17.72;118.99
67186;HTU21D;54116;53.518;49.398;2023-12-28T05:34:46;-17.73;118.99
67186;HTU21D;54116;53.518;49.398;2023-12-28T05:37:12;-17.76;118.99
67186;HTU21D;54116;53.518;49.398;2023-12-28T05:39:38;-17.78;118.99
67186;HTU21D;54116;53.518;49.398;2023-12-28T05:42:04;-17.76;118.99
67186;HTU21D;54116;53.518;49.398;2023-12-28T05:44:31;-17.82;118.99
67186;HTU21D;54116;53.518;49.398;2023-12-28T05:47:14;-17.85;118.99
67186;HTU21D;54116;53.518;49.398;2023-12-28T05:49:40;-17.81;118.99
67186;HTU21D;54116;53.518;49.398;2023-12-28T05:52:06;-17.80;118.99
67186;HTU21D;54116;53.518;49.398;2023-12-28T05:54:32;-17.60;118.99
67186;HTU21D;54116;53.518;49.398;2023-12-28T05:56:58;-17.58;118.99
67186;HTU21D;54116;53.518;49.398;2023-12-28T05:59:25;-17.43;118.99
67186;HTU21D;54116;53.518;49.398;2023-12-28T06:01:52;-17.55;118.99
67186;HTU21D;54116;53.518;49.398;2023-12-28T06:04:18;-17.41;118.99
67186;HTU21D;54116;53.518;49.398;2023-12-28T06:06:44;-17.32;118.99
67186;HTU21D;54116;53.518;49.398;2023-12-28T06:09:10;-17.47;118.99
67186;HTU21D;54116;53.518;49.398;2023-12-28T06:11:37;-17.41;118.99
67186;HTU21D;54116;53.518;49.398;2023-12-28T06:14:03;-17.37;118.99
67186;HTU21D;54116;53.518;49.398;2023-12-28T06:16:29;-17.13;118.99
67186;HTU21D;54116;53.518;49.398;2023-12-28T06:18:58;-17.21;118.99
67186;HTU21D;54116;53.518;49.398;2023-12-28T06:21:25;-17.07;118.99
67186;HTU21D;54116;53.518;49.398;2023-12-28T06:23:53;-16.99;118.99
67186;HTU21D;54116;53.518;49.398;2023-12-28T06:26:19;-16.74;118.99
67186;HTU21D;54116;53.518;49.398;2023-12-28T06:28:45;-16.53;118.99
67186;HTU21D;54116;53.518;49.398;2023-12-28T06:31:11;-16.48;118.99
67186;HTU21D;54116;53.518;49.398;2023-12-28T06:33:38;-16.46;118.99
67186;HTU21D;54116;53.518;49.398;2023-12-28T06:36:05;-16.46;118.99
67186;HTU21D;54116;53.518;49.398;2023-12-28T06:38:31;-16.32;118.99
67186;HTU21D;54116;53.518;49.398;2023-12-28T06:40:59;-16.33;118.99
67186;HTU21D;54116;53.518;49.398;2023-12-28T06:43:25;-16.28;118.99
67186;HTU21D;54116;53.518;49.398;2023-12-28T06:45:51;-16.11;118.99
67186;HTU21D;54116;53.518;49.398;2023-12-28T06:48:18;-16.13;118.99
67186;HTU21D;54116;53.518;49.398;2023-12-28T06:50:45;-16.08;118.99
67186;HTU21D;54116;53.518;49.398;2023-12-28T06:53:11;-16.13;118.99
67186;HTU21D;54116;53.518;49.398;2023-12-28T06:55:37;-16.07;118.99
67186;HTU21D;54116;53.518;49.398;2023-12-28T06:58:04;-16.22;118.99
67186;HTU21D;54116;53.518;49.398;2023-12-28T07:00:32;-16.13;118.99
67186;HTU21D;54116;53.518;49.398;2023-12-28T07:02:58;-16.30;118.99
67186;HTU21D;54116;53.518;49.398;2023-12-28T07:05:24;-16.30;118.99
67186;HTU21D;54116;53.518;49.398;2023-12-28T07:07:50;-15.79;118.99
67186;HTU21D;54116;53.518;49.398;2023-12-28T07:10:18;-15.87;118.99
67186;HTU21D;54116;53.518;49.398;2023-12-28T07:12:44;-16.27;118.99
67186;HTU21D;54116;53.518;49.398;2023-12-28T07:15:11;-16.32;118.99
67186;HTU21D;54116;53.518;49.398;2023-12-28T07:17:40;-16.41;118.99
67186;HTU21D;54116;53.518;49.398;2023-12-28T07:20:07;-16.17;118.99
67186;HTU21D;54116;53.518;49.398;2023-12-28T07:22:37;-15.99;118.99
67186;HTU21D;54116;53.518;49.398;2023-12-28T07:25:05;-15.94;118.99
67186;HTU21D;54116;53.518;49.398;2023-12-28T07:27:33;-16.21;118.99
67186;HTU21D;54116;53.518;49.398;2023-12-28T07:30:00;-16.06;118.99
67186;HTU21D;54116;53.518;49.398;2023-12-28T07:32:28;-16.15;118.99
67186;HTU21D;54116;53.518;49.398;2023-12-28T07:34:54;-16.42;118.99
67186;HTU21D;54116;53.518;49.398;2023-12-28T07:37:20;-16.14;118.99
67186;HTU21D;54116;53.518;49.398;2023-12-28T07:39:47;-16.29;118.99
67186;HTU21D;54116;53.518;49.398;2023-12-28T07:42:13;-16.21;118.99
67186;HTU21D;54116;53.518;49.398;2023-12-28T07:44:39;-16.39;118.99
67186;HTU21D;54116;53.518;49.398;2023-12-28T07:47:05;-16.21;118.99
67186;HTU21D;54116;53.518;49.398;2023-12-28T07:49:32;-16.04;118.99
67186;HTU21D;54116;53.518;49.398;2023-12-28T07:51:58;-15.93;118.99
67186;HTU21D;54116;53.518;49.398;2023-12-28T07:54:24;-16.30;118.99
67186;HTU21D;54116;53.518;49.398;2023-12-28T07:56:50;-16.29;118.99
67186;HTU21D;54116;53.518;49.398;2023-12-28T07:59:16;-16.34;118.99
67186;HTU21D;54116;53.518;49.398;2023-12-28T08:01:42;-16.29;118.99
67186;HTU21D;54116;53.518;49.398;2023-12-28T08:04:08;-16.12;118.99
67186;HTU21D;54116;53.518;49.398;2023-12-28T08:06:34;-15.81;118.99
67186;HTU21D;54116;53.518;49.398;2023-12-28T08:09:00;-16.09;118.99
67186;HTU21D;54116;53.518;49.398;2023-12-28T08:11:27;-15.93;118.99
67186;HTU21D;54116;53.518;49.398;2023-12-28T08:13:53;-16.03;118.99
67186;HTU21D;54116;53.518;49.398;2023-12-28T08:16:20;-16.12;118.99
67186;HTU21D;54116;53.518;49.398;2023-12-28T08:18:46;-16.02;118.99
67186;HTU21D;54116;53.518;49.398;2023-12-28T08:21:12;-16.36;118.99
67186;HTU21D;54116;53.518;49.398;2023-12-28T08:23:39;-16.38;118.99
67186;HTU21D;54116;53.518;49.398;2023-12-28T08:26:05;-16.09;118.99
67186;HTU21D;54116;53.518;49.398;2023-12-28T08:28:33;-16.11;118.99
67186;HTU21D;54116;53.518;49.398;2023-12-28T08:30:59;-16.12;118.99
67186;HTU21D;54116;53.518;49.398;2023-12-28T08:33:26;-16.09;118.99
67186;HTU21D;54116;53.518;49.398;2023-12-28T08:35:52;-15.97;118.99
67186;HTU21D;54116;53.518;49.398;2023-12-28T08:38:18;-16.07;118.99
67186;HTU21D;54116;53.518;49.398;2023-12-28T08:40:45;-16.55;118.99
67186;HTU21D;54116;53.518;49.398;2023-12-28T08:43:12;-15.98;118.99
67186;HTU21D;54116;53.518;49.398;2023-12-28T08:45:38;-16.28;118.99
67186;HTU21D;54116;53.518;49.398;2023-12-28T08:48:05;-16.30;118.99
67186;HTU21D;54116;53.518;49.398;2023-12-28T08:50:31;-16.29;118.99
67186;HTU21D;54116;53.518;49.398;2023-12-28T08:52:57;-16.05;118.99
67186;HTU21D;54116;53.518;49.398;2023-12-28T08:55:24;-16.06;118.99
67186;HTU21D;54116;53.518;49.398;2023-12-28T08:57:50;-16.08;118.99
67186;HTU21D;54116;53.518;49.398;2023-12-28T09:00:16;-15.91;118.99
67186;HTU21D;54116;53.518;49.398;2023-12-28T09:02:43;-15.78;118.99
67186;HTU21D;54116;53.518;49.398;2023-12-28T09:05:09;-15.84;118.99
67186;HTU21D;54116;53.518;49.398;2023-12-28T09:07:36;-15.98;118.99
67186;HTU21D;54116;53.518;49.398;2023-12-28T09:10:12;-15.87;118.99
67186;HTU21D;54116;53.518;49.398;2023-12-28T09:12:40;-15.68;118.99
67186;HTU21D;54116;53.518;49.398;2023-12-28T09:15:07;-15.46;118.99
67186;HTU21D;54116;53.518;49.398;2023-12-28T09:17:35;-15.58;118.99
67186;HTU21D;54116;53.518;49.398;2023-12-28T09:20:01;-15.49;118.99
67186;HTU21D;54116;53.518;49.398;2023-12-28T09:22:28;-15.34;118.99
67186;HTU21D;54116;53.518;49.398;2023-12-28T09:24:55;-15.54;118.99
67186;HTU21D;54116;53.518;49.398;2023-12-28T09:27:21;-15.55;118.99
67186;HTU21D;54116;53.518;49.398;2023-12-28T09:29:47;-15.69;118.99
67186;HTU21D;54116;53.518;49.398;2023-12-28T09:32:13;-15.75;118.99
67186;HTU21D;54116;53.518;49.398;2023-12-28T09:34:40;-15.84;118.99
67186;HTU21D;54116;53.518;49.398;2023-12-28T09:37:06;-16.17;118.99
67186;HTU21D;54116;53.518;49.398;2023-12-28T09:39:32;-15.79;118.99
67186;HTU21D;54116;53.518;49.398;2023-12-28T09:42:16;-16.03;118.99
67186;HTU21D;54116;53.518;49.398;2023-12-28T09:44:43;-15.83;118.99
67186;HTU21D;54116;53.518;49.398;2023-12-28T09:47:10;-15.85;118.99
67186;HTU21D;54116;53.518;49.398;2023-12-28T09:49:39;-15.77;118.99
67186;HTU21D;54116;53.518;49.398;2023-12-28T09:52:06;-15.84;118.99
67186;HTU21D;54116;53.518;49.398;2023-12-28T09:54:32;-16.00;118.99
67186;HTU21D;54116;53.518;49.398;2023-12-28T09:56:58;-16.08;118.99
67186;HTU21D;54116;53.518;49.398;2023-12-28T09:59:24;-15.80;118.99
67186;HTU21D;54116;53.518;49.398;2023-12-28T10:01:54;-15.90;118.99
67186;HTU21D;54116;53.518;49.398;2023-12-28T10:04:21;-15.94;118.99
67186;HTU21D;54116;53.518;49.398;2023-12-28T10:06:47;-15.90;118.99
67186;HTU21D;54116;53.518;49.398;2023-12-28T10:09:13;-15.81;118.99
67186;HTU21D;54116;53.518;49.398;2023-12-28T10:11:40;-15.70;118.99
67186;HTU21D;54116;53.518;49.398;2023-12-28T10:14:07;-15.65;118.99
67186;HTU21D;54116;53.518;49.398;2023-12-28T10:16:33;-16.00;118.99
67186;HTU21D;54116;53.518;49.398;2023-12-28T10:18:59;-15.63;118.99
67186;HTU21D;54116;53.518;49.398;2023-12-28T10:21:25;-15.52;118.99
67186;HTU21D;54116;53.518;49.398;2023-12-28T10:23:51;-15.75;118.99
67186;HTU21D;54116;53.518;49.398;2023-12-28T10:26:18;-15.76;118.99
67186;HTU21D;54116;53.518;49.398;2023-12-28T10:28:44;-15.65;118.99
67186;HTU21D;54116;53.518;49.398;2023-12-28T10:31:11;-15.48;118.99
67186;HTU21D;54116;53.518;49.398;2023-12-28T10:33:38;-15.77;118.99
67186;HTU21D;54116;53.518;49.398;2023-12-28T10:36:08;-15.91;118.99
67186;HTU21D;54116;53.518;49.398;2023-12-28T10:38:35;-16.21;118.99
67186;HTU21D;54116;53.518;49.398;2023-12-28T10:41:07;-16.10;118.99
67186;HTU21D;54116;53.518;49.398;2023-12-28T10:43:46;-16.13;118.99
67186;HTU21D;54116;53.518;49.398;2023-12-28T10:46:25;-15.89;118.99
67186;HTU21D;54116;53.518;49.398;2023-12-28T10:48:59;-15.80;118.99
67186;HTU21D;54116;53.518;49.398;2023-12-28T10:51:26;-15.93;118.99
67186;HTU21D;54116;53.518;49.398;2023-12-28T10:57:37;-15.96;118.99
67186;HTU21D;54116;53.518;49.398;2023-12-28T11:00:20;-15.91;118.99
67186;HTU21D;54116;53.518;49.398;2023-12-28T11:02:52;-15.65;118.99
67186;HTU21D;54116;53.518;49.398;2023-12-28T11:05:22;-15.99;118.99
67186;HTU21D;54116;53.518;49.398;2023-12-28T11:07:50;-16.04;118.99
67186;HTU21D;54116;53.518;49.398;2023-12-28T11:10:20;-16.20;118.99
67186;HTU21D;54116;53.518;49.398;2023-12-28T11:12:53;-16.26;118.99
67186;HTU21D;54116;53.518;49.398;2023-12-28T11:15:20;-15.92;118.99
67186;HTU21D;54116;53.518;49.398;2023-12-28T11:17:47;-15.84;118.99
67186;HTU21D;54116;53.518;49.398;2023-12-28T11:20:14;-16.20;118.99
67186;HTU21D;54116;53.518;49.398;2023-12-28T11:22:40;-16.14;118.99
67186;HTU21D;54116;53.518;49.398;2023-12-28T11:25:14;-16.38;118.99
67186;HTU21D;54116;53.518;49.398;2023-12-28T11:27:40;-16.33;118.99
67186;HTU21D;54116;53.518;49.398;2023-12-28T11:30:07;-16.38;118.99
67186;HTU21D;54116;53.518;49.398;2023-12-28T11:32:36;-16.40;118.99
67186;HTU21D;54116;53.518;49.398;2023-12-28T11:35:02;-16.39;118.99
67186;HTU21D;54116;53.518;49.398;2023-12-28T11:37:32;-16.43;118.99
67186;HTU21D;54116;53.518;49.398;2023-12-28T11:40:10;-16.51;118.99
67186;HTU21D;54116;53.518;49.398;2023-12-28T11:42:36;-16.32;118.99
67186;HTU21D;54116;53.518;49.398;2023-12-28T11:45:02;-16.04;118.99
67186;HTU21D;54116;53.518;49.398;2023-12-28T11:47:29;-15.80;118.99
67186;HTU21D;54116;53.518;49.398;2023-12-28T11:49:55;-15.89;118.99
67186;HTU21D;54116;53.518;49.398;2023-12-28T11:52:31;-16.04;118.99
67186;HTU21D;54116;53.518;49.398;2023-12-28T11:55:00;-16.39;118.99
67186;HTU21D;54116;53.518;49.398;2023-12-28T11:57:26;-16.25;118.99
67186;HTU21D;54116;53.518;49.398;2023-12-28T11:59:56;-16.68;118.99
67186;HTU21D;54116;53.518;49.398;2023-12-28T12:02:23;-16.56;118.99
67186;HTU21D;54116;53.518;49.398;2023-12-28T12:04:55;-16.39;118.99
67186;HTU21D;54116;53.518;49.398;2023-12-28T12:07:27;-16.67;118.99
67186;HTU21D;54116;53.518;49.398;2023-12-28T12:09:59;-16.73;118.99
67186;HTU21D;54116;53.518;49.398;2023-12-28T12:12:26;-16.81;118.99
67186;HTU21D;54116;53.518;49.398;2023-12-28T12:14:52;-16.59;118.99
67186;HTU21D;54116;53.518;49.398;2023-12-28T12:17:18;-16.56;118.99
67186;HTU21D;54116;53.518;49.398;2023-12-28T12:19:45;-16.40;118.99
67186;HTU21D;54116;53.518;49.398;2023-12-28T12:22:16;-16.55;118.99
67186;HTU21D;54116;53.518;49.398;2023-12-28T12:24:44;-16.70;118.99
67186;HTU21D;54116;53.518;49.398;2023-12-28T12:27:12;-16.66;118.99
67186;HTU21D;54116;53.518;49.398;2023-12-28T12:29:38;-16.61;118.99
67186;HTU21D;54116;53.518;49.398;2023-12-28T12:32:05;-16.65;118.99
67186;HTU21D;54116;53.518;49.398;2023-12-28T12:34:34;-16.80;118.99
67186;HTU21D;54116;53.518;49.398;2023-12-28T12:37:00;-16.62;118.99
67186;HTU21D;54116;53.518;49.398;2023-12-28T12:39:27;-16.71;118.99
67186;HTU21D;54116;53.518;49.398;2023-12-28T12:41:54;-16.54;118.99
67186;HTU21D;54116;53.518;49.398;2023-12-28T12:44:23;-16.68;118.99
67186;HTU21D;54116;53.518;49.398;2023-12-28T12:46:56;-16.47;118.99
67186;HTU21D;54116;53.518;49.398;2023-12-28T12:49:23;-16.39;118.99
67186;HTU21D;54116;53.518;49.398;2023-12-28T12:51:51;-16.33;118.99
67186;HTU21D;54116;53.518;49.398;2023-12-28T12:54:17;-16.48;118.99
67186;HTU21D;54116;53.518;49.398;2023-12-28T12:56:47;-16.54;118.99
67186;HTU21D;54116;53.518;49.398;2023-12-28T12:59:15;-16.25;118.99
67186;HTU21D;54116;53.518;49.398;2023-12-28T13:01:46;-16.49;118.99
67186;HTU21D;54116;53.518;49.398;2023-12-28T13:04:19;-16.41;118.99
67186;HTU21D;54116;53.518;49.398;2023-12-28T13:06:45;-16.35;118.99
67186;HTU21D;54116;53.518;49.398;2023-12-28T13:09:11;-16.39;118.99
67186;HTU21D;54116;53.518;49.398;2023-12-28T13:11:38;-16.42;118.99
67186;HTU21D;54116;53.518;49.398;2023-12-28T13:14:04;-16.24;118.99
67186;HTU21D;54116;53.518;49.398;2023-12-28T13:16:31;-16.26;118.99
67186;HTU21D;54116;53.518;49.398;2023-12-28T13:18:57;-16.14;118.99
67186;HTU21D;54116;53.518;49.398;2023-12-28T13:21:23;-16.09;118.99
67186;HTU21D;54116;53.518;49.398;2023-12-28T13:23:50;-16.28;118.99
67186;HTU21D;54116;53.518;49.398;2023-12-28T13:26:16;-16.08;118.99
67186;HTU21D;54116;53.518;49.398;2023-12-28T13:28:43;-15.81;118.99
67186;HTU21D;54116;53.518;49.398;2023-12-28T13:31:09;-16.26;118.99
67186;HTU21D;54116;53.518;49.398;2023-12-28T13:33:35;-16.11;118.99
67186;HTU21D;54116;53.518;49.398;2023-12-28T13:36:01;-16.38;118.99
67186;HTU21D;54116;53.518;49.398;2023-12-28T13:38:28;-16.39;118.99
67186;HTU21D;54116;53.518;49.398;2023-12-28T13:40:54;-16.54;118.99
67186;HTU21D;54116;53.518;49.398;2023-12-28T13:43:21;-16.28;118.99
67186;HTU21D;54116;53.518;49.398;2023-12-28T13:45:47;-16.38;118.99
67186;HTU21D;54116;53.518;49.398;2023-12-28T13:48:13;-16.52;118.99
67186;HTU21D;54116;53.518;49.398;2023-12-28T13:50:39;-16.47;118.99
67186;HTU21D;54116;53.518;49.398;2023-12-28T13:53:05;-16.63;118.99
67186;HTU21D;54116;53.518;49.398;2023-12-28T13:55:33;-16.28;118.99
67186;HTU21D;54116;53.518;49.398;2023-12-28T13:58:01;-16.51;118.99
67186;HTU21D;54116;53.518;49.398;2023-12-28T14:00:28;-16.22;118.99
67186;HTU21D;54116;53.518;49.398;2023-12-28T14:02:54;-16.69;118.99
67186;HTU21D;54116;53.518;49.398;2023-12-28T14:05:21;-16.67;118.99
67186;HTU21D;54116;53.518;49.398;2023-12-28T14:07:49;-16.68;118.99
67186;HTU21D;54116;53.518;49.398;2023-12-28T14:10:15;-16.05;118.99
67186;HTU21D;54116;53.518;49.398;2023-12-28T14:12:41;-15.88;118.99
67186;HTU21D;54116;53.518;49.398;2023-12-28T14:15:08;-16.13;118.99
67186;HTU21D;54116;53.518;49.398;2023-12-28T14:17:35;-15.88;118.99
67186;HTU21D;54116;53.518;49.398;2023-12-28T14:20:01;-16.34;118.99
67186;HTU21D;54116;53.518;49.398;2023-12-28T14:22:29;-16.20;118.99
67186;HTU21D;54116;53.518;49.398;2023-12-28T14:24:56;-15.74;118.99
67186;HTU21D;54116;53.518;49.398;2023-12-28T14:27:23;-15.74;118.99
67186;HTU21D;54116;53.518;49.398;2023-12-28T14:29:49;-15.84;118.99
67186;HTU21D;54116;53.518;49.398;2023-12-28T14:32:18;-15.54;118.99
67186;HTU21D;54116;53.518;49.398;2023-12-28T14:34:44;-16.05;118.99
67186;HTU21D;54116;53.518;49.398;2023-12-28T14:37:10;-16.50;118.99
67186;HTU21D;54116;53.518;49.398;2023-12-28T14:39:36;-16.46;118.99
67186;HTU21D;54116;53.518;49.398;2023-12-28T14:42:04;-16.64;118.99